Time;durP1;ratioP1;P1;durP2;ratioP2;P2;SDS_P1;SDS_P2;PMS_P1;PMS_P2;Temp;Humidity;BMP_temperature;BMP_pressure;BME280_temperature;BME280_humidity;BME280_pressure;Samples;Min_cycle;Max_cycle;Signal;HPM_P1;HPM_P2
2022/12/04 00:01:21;;;;;;;5.60;3.03;;;9.10;99.90;;;10.23;57.56;101247.72;4818546;28;98579;-56
2022/12/04 00:03:50;;;;;;;9.40;3.80;;;9.30;99.90;;;10.29;52.58;101248.44;4819449;28;103361;-55
2022/12/04 00:06:19;;;;;;;6.77;2.97;;;9.50;99.90;;;10.25;52.80;101246.78;4821797;28;97215;-56
2022/12/04 00:08:46;;;;;;;8.00;3.70;;;9.40;99.90;;;10.30;49.77;101239.63;4822388;28;99463;-56
2022/12/04 00:11:16;;;;;;;8.13;3.13;;;9.40;99.90;;;10.26;48.25;101237.97;4820621;28;97677;-56
2022/12/04 00:13:42;;;;;;;6.90;3.50;;;9.40;99.90;;;10.13;47.93;101241.78;4827694;28;97275;-57
2022/12/04 00:16:13;;;;;;;7.20;4.33;;;9.30;99.90;;;10.02;49.87;101238.56;4820730;28;97180;-55
2022/12/04 00:18:39;;;;;;;6.73;3.87;;;9.20;99.90;;;10.01;49.96;101236.81;4810891;28;98958;-56
2022/12/04 00:21:08;;;;;;;10.47;4.60;;;9.20;99.90;;;10.10;50.99;101231.31;4817800;28;105332;-54
2022/12/04 00:23:36;;;;;;;6.87;3.57;;;9.20;99.90;;;10.29;55.37;101237.91;4807133;29;97420;-54
2022/12/04 00:26:06;;;;;;;11.57;4.53;;;9.40;99.90;;;10.31;51.28;101230.81;4816947;28;97766;-55
2022/12/04 00:28:33;;;;;;;9.43;3.67;;;9.40;99.90;;;10.20;49.71;101227.53;4818012;28;97812;-56
2022/12/04 00:30:59;;;;;;;7.03;4.00;;;9.40;99.90;;;10.16;49.83;101236.44;4826419;28;98656;-54
2022/12/04 00:33:25;;;;;;;3.83;1.87;;;9.30;99.90;;;10.51;56.95;101216.22;4812346;28;97367;-55
2022/12/04 00:36:00;;;;;;;6.30;2.73;;;9.50;99.90;;;10.96;55.86;101222.88;4816772;28;111362;-54
2022/12/04 00:38:26;;;;;;;6.20;2.60;;;10.10;99.90;;;11.38;54.73;101217.28;4818128;28;97414;-55
2022/12/04 00:40:53;;;;;;;7.37;3.40;;;10.60;99.90;;;11.70;49.20;101218.06;4804838;28;97671;-53
2022/12/04 00:43:19;;;;;;;7.07;3.10;;;11.10;99.90;;;11.69;48.52;101222.47;4818318;28;99804;-56
2022/12/04 00:45:45;;;;;;;5.47;2.43;;;10.80;99.90;;;11.73;52.08;101216.22;4822596;28;97466;-55
2022/12/04 00:48:11;;;;;;;8.07;3.13;;;10.70;99.90;;;11.73;51.64;101213.56;4821286;28;97002;-53
2022/12/04 00:50:37;;;;;;;6.30;3.27;;;10.70;99.90;;;11.69;46.13;101211.91;4814806;28;102657;-52
2022/12/04 00:53:03;;;;;;;6.23;3.17;;;10.60;99.60;;;11.48;46.48;101218.72;4820922;28;97028;-56
2022/12/04 00:55:29;;;;;;;6.20;2.67;;;10.40;99.40;;;11.25;44.78;101211.50;4817595;28;114200;-54
2022/12/04 00:57:55;;;;;;;7.63;3.37;;;10.20;99.90;;;11.40;48.30;101215.44;4818642;28;97394;-54
2022/12/04 01:00:21;;;;;;;5.33;3.00;;;10.30;99.90;;;11.62;51.39;101211.25;4815243;28;105649;-53
2022/12/04 01:02:47;;;;;;;7.27;3.17;;;10.60;99.90;;;11.40;44.86;101206.66;4821359;28;97473;-55
2022/12/04 01:05:13;;;;;;;4.70;2.07;;;10.40;99.00;;;11.66;53.51;101209.38;4821466;28;98265;-55
2022/12/04 01:07:39;;;;;;;5.00;2.50;;;10.50;99.90;;;11.61;51.86;101208.66;4817613;28;97168;-55
2022/12/04 01:10:07;;;;;;;5.30;2.77;;;10.50;99.90;;;11.54;49.01;101201.81;4817415;28;100997;-54
2022/12/04 01:12:33;;;;;;;7.07;2.97;;;10.50;99.80;;;11.31;46.37;101202.53;4816945;28;104086;-53
2022/12/04 01:14:59;;;;;;;4.37;3.17;;;10.30;99.70;;;11.29;50.62;101209.66;4822258;28;99056;-54
2022/12/04 01:17:25;;;;;;;7.13;3.20;;;10.20;99.90;;;11.20;48.53;101207.25;4814118;28;114807;-56
2022/12/04 01:19:51;;;;;;;6.60;2.73;;;10.10;99.90;;;10.90;43.97;101209.00;4818306;28;118331;-55
2022/12/04 01:22:17;;;;;;;6.07;3.50;;;9.90;99.40;;;10.86;52.21;101213.53;4820382;28;110916;-54
2022/12/04 01:24:43;;;;;;;9.23;3.47;;;9.80;99.90;;;10.73;49.29;101214.78;4817467;28;116509;-53
2022/12/04 01:27:09;;;;;;;7.03;3.13;;;9.80;99.90;;;10.60;47.26;101211.59;4824938;28;112841;-51
2022/12/04 01:29:34;;;;;;;5.03;1.90;;;9.70;99.90;;;10.59;47.50;101214.28;4823801;28;100277;-52
2022/12/04 01:32:00;;;;;;;10.47;3.43;;;9.70;99.90;;;10.72;51.81;101210.41;4812296;28;100581;-55
2022/12/04 01:34:26;;;;;;;5.80;2.63;;;9.70;99.90;;;11.02;54.13;101214.81;4823899;28;98855;-52
2022/12/04 01:36:52;;;;;;;5.77;3.07;;;10.10;99.90;;;11.03;50.14;101210.41;4823085;28;98126;-53
2022/12/04 01:39:18;;;;;;;7.33;2.73;;;10.10;99.90;;;11.03;50.71;101215.69;4819179;28;113637;-51
2022/12/04 01:41:44;;;;;;;2.77;1.40;;;10.00;99.90;;;11.27;54.38;101216.72;4816188;28;114057;-56
2022/12/04 01:44:23;;;;;;;7.10;3.03;;;10.30;99.90;;;11.25;48.86;101207.97;4821473;28;113116;-52
2022/12/04 01:46:55;;;;;;;7.03;3.23;;;10.40;99.90;;;11.19;46.23;101210.81;4818719;28;99849;-55
2022/12/04 01:49:38;;;;;;;7.57;3.00;;;10.30;99.80;;;11.07;49.46;101200.59;4803933;29;97529;-56
2022/12/04 01:52:14;;;;;;;7.87;2.77;;;10.10;99.90;;;10.94;49.05;101200.97;4805310;28;96764;-56
2022/12/04 01:54:46;;;;;;;4.93;3.00;;;9.90;99.90;;;10.82;49.28;101200.44;4816686;28;97431;-52
2022/12/04 01:57:18;;;;;;;5.93;2.57;;;9.80;99.90;;;10.89;54.00;101200.22;4821982;28;99634;-51
2022/12/04 01:59:49;;;;;;;8.40;3.03;;;9.80;99.90;;;10.91;49.43;101201.06;4819600;28;98450;-56
2022/12/04 02:02:21;;;;;;;7.87;3.60;;;9.90;99.90;;;10.73;47.63;101196.28;4822184;28;97202;-55
2022/12/04 02:04:47;;;;;;;8.97;2.93;;;9.80;99.90;;;10.63;49.05;101200.09;4786292;28;103393;-54
2022/12/04 02:07:13;;;;;;;5.60;2.73;;;9.60;99.90;;;10.51;49.53;101203.91;4819536;28;112070;-50
2022/12/04 02:09:40;;;;;;;7.80;3.00;;;9.50;99.90;;;10.47;49.97;101198.78;4833675;28;117785;-48
2022/12/04 02:12:33;;;;;;;5.07;2.57;;;9.50;99.90;;;10.52;48.94;101188.94;4836713;28;102137;-53
2022/12/04 02:15:45;;;;;;;9.03;3.53;;;9.60;99.90;;;10.66;55.73;101186.81;4836280;28;103547;-52
2022/12/04 02:18:32;;;;;;;6.37;2.90;;;9.60;99.90;;;10.82;53.92;101196.03;4826970;28;101266;-54
2022/12/04 02:21:13;;;;;;;7.57;3.70;;;9.80;99.90;;;10.92;51.14;101202.78;4835097;28;97725;-55
2022/12/04 02:23:56;;;;;;;3.57;1.67;;;9.90;99.90;;;11.30;54.70;101199.03;4828585;28;97450;-51
2022/12/04 02:27:07;;;;;;;6.33;3.03;;;10.30;99.90;;;11.41;50.69;101205.75;4823127;29;97007;-52
2022/12/04 02:29:42;;;;;;;7.23;3.20;;;10.50;99.90;;;11.42;51.14;101208.34;4817512;28;99868;-54
2022/12/04 02:32:57;;;;;;;7.13;2.77;;;10.40;99.90;;;11.54;49.92;101207.97;4821909;29;97185;-51
2022/12/04 02:35:39;;;;;;;2.97;1.87;;;10.50;99.80;;;11.85;52.91;101201.75;4832185;28;97797;-54
2022/12/04 02:38:19;;;;;;;5.13;1.87;;;10.90;99.90;;;12.05;52.56;101209.91;4824047;28;98615;-49
2022/12/04 02:41:07;;;;;;;4.07;1.77;;;11.10;99.90;;;12.09;52.00;101206.25;4834237;28;101339;-53
2022/12/04 02:43:53;;;;;;;6.40;2.27;;;11.10;99.90;;;12.20;51.86;101204.09;4838060;28;105943;-55
2022/12/04 02:46:36;;;;;;;5.83;2.57;;;11.20;99.90;;;12.28;50.11;101201.19;4840589;28;97965;-57
2022/12/04 02:49:08;;;;;;;3.77;1.93;;;11.20;99.80;;;12.16;47.30;101205.13;4832347;28;97938;-54
2022/12/04 02:51:37;;;;;;;7.10;3.40;;;11.10;98.70;;;12.16;49.63;101207.78;4846101;28;98652;-55
2022/12/04 02:54:38;;;;;;;8.00;2.90;;;11.00;99.10;;;11.88;49.74;101207.81;4829749;28;101370;-57
2022/12/04 02:57:10;;;;;;;12.73;3.40;;;10.70;99.40;;;11.89;50.06;101198.97;4813630;28;97703;-54
2022/12/04 02:59:40;;;;;;;6.50;3.07;;;10.70;99.90;;;11.68;47.12;101194.31;4828060;28;97460;-51
2022/12/04 03:02:31;;;;;;;5.37;2.43;;;10.50;98.90;;;11.46;45.49;101202.06;4828805;28;98478;-56
2022/12/04 03:05:03;;;;;;;6.57;2.23;;;10.30;99.60;;;11.39;46.03;101203.16;4842622;28;97705;-52
2022/12/04 03:07:53;;;;;;;5.37;2.67;;;10.30;99.10;;;11.25;45.01;101200.06;4825692;29;97344;-54
2022/12/04 03:10:35;;;;;;;5.23;2.30;;;10.20;98.60;;;11.12;45.99;101198.69;4820303;29;97480;-61
2022/12/04 03:13:09;;;;;;;5.03;2.27;;;10.00;99.30;;;11.12;48.73;101209.25;4820340;28;97230;-55
2022/12/04 03:16:34;;;;;;;5.63;2.87;;;10.00;99.80;;;11.30;49.63;101208.72;4823275;29;99015;-54
2022/12/04 03:19:15;;;;;;;5.87;2.90;;;10.20;99.90;;;11.20;52.40;101201.97;4841929;28;98161;-55
2022/12/04 03:22:12;;;;;;;5.03;2.00;;;10.10;99.90;;;11.32;51.25;101206.91;4841717;28;98190;-56
2022/12/04 03:24:51;;;;;;;7.77;2.73;;;10.20;99.90;;;11.34;48.83;101205.09;4841848;28;97313;-56
2022/12/04 03:27:39;;;;;;;6.47;1.40;;;10.20;99.60;;;11.42;51.22;101213.63;4835316;28;97483;-56
2022/12/04 03:30:10;;;;;;;5.77;2.57;;;10.30;99.90;;;11.35;50.07;101196.25;4831411;29;98053;-57
2022/12/04 03:33:02;;;;;;;6.17;2.90;;;10.20;99.70;;;11.40;52.90;101204.00;4825554;29;97571;-55
2022/12/04 03:35:48;;;;;;;6.07;2.77;;;10.20;99.90;;;11.67;51.71;101207.59;4832242;28;97097;-56
2022/12/04 03:38:37;;;;;;;5.70;2.13;;;10.70;99.90;;;11.68;51.50;101198.75;4818418;29;96932;-56
2022/12/04 03:41:13;;;;;;;3.97;2.03;;;10.60;99.90;;;11.77;46.78;101198.47;4833716;28;97744;-56
2022/12/04 03:43:55;;;;;;;5.87;2.20;;;10.80;99.90;;;11.86;51.03;101193.78;4826369;28;100282;-56
2022/12/04 03:46:31;;;;;;;5.40;1.97;;;10.80;99.70;;;12.01;52.04;101197.72;4849350;28;96761;-55
2022/12/04 03:49:18;;;;;;;4.77;2.20;;;10.90;99.90;;;12.04;51.83;101192.31;4848523;28;96935;-54
2022/12/04 03:51:56;;;;;;;4.47;2.33;;;10.90;99.90;;;11.85;42.38;101193.81;4838720;28;97568;-56
2022/12/04 03:54:28;;;;;;;5.57;2.37;;;10.90;98.00;;;11.52;44.32;101193.06;4823974;29;97324;-55
2022/12/04 03:57:01;;;;;;;5.30;2.30;;;10.50;97.50;;;11.32;49.02;101198.97;4844276;28;96670;-55
2022/12/04 03:59:38;;;;;;;3.47;2.17;;;10.20;99.50;;;11.07;46.91;101208.53;4843309;28;96752;-56
2022/12/04 04:02:07;;;;;;;5.70;2.67;;;10.00;99.70;;;10.85;48.38;101203.88;4826009;28;97584;-56
2022/12/04 04:04:36;;;;;;;4.73;2.27;;;9.80;99.90;;;10.71;46.30;101203.41;4828249;28;97222;-54
2022/12/04 04:07:38;;;;;;;2.77;1.70;;;9.70;99.90;;;10.88;54.20;101203.78;4844767;28;97026;-55
2022/12/04 04:10:30;;;;;;;3.03;1.77;;;9.80;99.90;;;11.28;52.17;101200.84;4827497;28;97054;-56
2022/12/04 04:24:35;;;;;;;2.53;1.53;;;10.50;99.90;;;11.87;48.20;101210.50;4835946;28;102150;-53
2022/12/04 04:27:02;;;;;;;7.47;2.87;;;10.90;99.90;;;12.05;48.70;101209.91;4838194;28;100499;-56
2022/12/04 04:29:28;;;;;;;2.40;1.40;;;11.10;99.90;;;12.27;51.15;101211.81;4843810;28;97381;-55
2022/12/04 04:32:12;;;;;;;2.17;1.50;;;11.40;99.90;;;12.52;50.95;101215.38;4836327;28;100778;-52
2022/12/04 04:35:03;;;;;;;2.63;1.33;;;11.70;99.90;;;12.72;50.04;101196.97;4827325;28;96877;-55
2022/12/04 04:37:52;;;;;;;3.77;1.60;;;12.00;99.90;;;12.69;45.73;101193.59;4836304;28;97297;-56
2022/12/04 04:40:37;;;;;;;3.27;1.47;;;11.90;97.70;;;12.63;50.39;101192.03;4821986;29;97303;-56
2022/12/04 04:43:12;;;;;;;3.07;1.40;;;11.60;99.90;;;12.75;47.89;101196.91;4836514;28;97308;-55
2022/12/04 04:45:46;;;;;;;5.90;2.20;;;11.80;99.90;;;12.81;46.84;101196.66;4831208;28;97848;-54
2022/12/04 04:48:31;;;;;;;3.73;1.80;;;11.80;97.70;;;13.05;42.82;101188.75;4852273;28;98255;-54
2022/12/04 04:51:00;;;;;;;3.30;1.67;;;12.20;98.70;;;13.13;49.17;101185.78;4816847;28;100991;-53
2022/12/04 04:53:34;;;;;;;3.83;1.70;;;12.30;99.90;;;12.91;44.60;101188.41;4828366;28;97183;-56
2022/12/04 04:56:00;;;;;;;4.43;2.03;;;12.00;96.30;;;12.60;45.73;101186.88;4847100;28;96845;-53
2022/12/04 04:58:25;;;;;;;4.20;1.77;;;11.50;96.80;;;12.36;45.94;101195.66;4836836;28;116339;-55
2022/12/04 05:01:20;;;;;;;3.47;1.73;;;11.20;97.30;;;12.03;43.23;101195.88;4845370;28;106034;-55
2022/12/04 05:03:46;;;;;;;4.27;2.27;;;10.90;97.00;;;12.27;49.42;101188.00;4816557;28;97137;-54
2022/12/04 05:06:12;;;;;;;6.47;2.97;;;11.20;99.90;;;12.03;45.43;101195.88;4838165;28;101804;-53
2022/12/04 05:08:38;;;;;;;3.10;1.80;;;10.90;97.50;;;11.83;44.68;101188.59;4836687;28;96751;-56
2022/12/04 05:11:04;;;;;;;4.67;2.20;;;10.70;97.60;;;11.59;44.84;101200.78;4839959;28;100977;-54
2022/12/04 05:13:31;;;;;;;3.53;1.50;;;10.40;97.80;;;11.40;47.31;101189.03;4837893;28;97370;-55
2022/12/04 05:16:02;;;;;;;4.40;1.67;;;10.20;98.20;;;11.20;45.71;101186.13;4839242;28;97059;-50
2022/12/04 05:18:29;;;;;;;3.73;1.43;;;10.00;98.70;;;10.97;47.05;101189.44;4835433;28;97287;-50
2022/12/04 05:20:55;;;;;;;4.60;1.80;;;9.80;98.60;;;10.92;49.00;101175.53;4839641;28;97280;-54
2022/12/04 05:23:21;;;;;;;2.23;1.37;;;9.80;99.90;;;10.90;53.01;101178.22;4835563;28;96754;-52
2022/12/04 05:25:47;;;;;;;5.70;2.20;;;9.80;99.90;;;10.89;50.27;101179.13;4829661;28;96796;-55
2022/12/04 05:28:13;;;;;;;3.87;2.00;;;9.90;99.90;;;10.94;50.13;101177.19;4838092;28;120680;-54
2022/12/04 05:30:39;;;;;;;6.33;2.20;;;10.00;99.90;;;10.88;49.27;101187.94;4840197;28;107410;-49
2022/12/04 05:33:05;;;;;;;3.63;1.67;;;9.90;99.40;;;10.87;51.52;101188.84;4827783;28;97495;-55
2022/12/04 05:35:31;;;;;;;4.53;2.50;;;9.80;99.90;;;11.03;54.28;101184.00;4839596;28;100470;-51
2022/12/04 05:37:57;;;;;;;3.30;1.80;;;9.90;99.90;;;11.06;49.96;101183.03;4845833;28;97197;-55
2022/12/04 05:40:23;;;;;;;4.40;1.50;;;10.00;99.50;;;11.27;54.06;101187.66;4845493;28;108329;-55
2022/12/04 05:42:49;;;;;;;2.50;1.53;;;10.20;99.90;;;11.53;52.14;101185.09;4836216;28;104168;-54
2022/12/04 05:45:14;;;;;;;4.50;2.10;;;10.60;99.90;;;11.68;45.88;101185.53;4833046;28;104130;-53
2022/12/04 05:47:42;;;;;;;3.57;1.67;;;10.90;98.20;;;11.84;51.28;101178.88;4842008;28;97137;-53
2022/12/04 05:50:11;;;;;;;3.67;1.90;;;10.90;99.90;;;12.00;44.39;101174.81;4837008;28;97081;-53
2022/12/04 05:52:37;;;;;;;2.83;1.23;;;11.20;98.20;;;12.32;51.32;101175.53;4842240;28;97018;-54
2022/12/04 05:55:03;;;;;;;2.60;1.43;;;11.50;99.90;;;12.63;49.94;101176.16;4848638;28;97491;-51
2022/12/04 05:57:29;;;;;;;2.13;1.20;;;12.00;99.80;;;13.07;49.28;101171.00;4835008;28;97376;-54
2022/12/04 05:59:55;;;;;;;1.87;1.10;;;12.60;99.90;;;13.38;48.35;101166.28;4834189;28;98411;-55
2022/12/04 06:02:21;;;;;;;2.83;1.23;;;13.00;99.90;;;13.65;47.60;101182.88;4833870;28;99842;-53
2022/12/04 06:04:46;;;;;;;3.37;1.20;;;13.40;99.90;;;13.85;47.02;101173.25;4843422;28;118937;-52
2022/12/04 06:07:12;;;;;;;1.93;1.10;;;13.60;99.60;;;14.06;46.93;101179.47;4848852;28;96966;-53
2022/12/04 06:09:38;;;;;;;2.40;1.40;;;13.90;99.90;;;14.19;45.37;101180.69;4842366;28;98357;-54
2022/12/04 06:12:04;;;;;;;4.07;1.73;;;14.00;95.80;;;14.11;45.26;101190.75;4838569;28;103937;-54
2022/12/04 06:14:30;;;;;;;2.47;1.87;;;13.60;95.00;;;13.77;42.19;101184.19;4820542;29;99634;-52
2022/12/04 06:16:56;;;;;;;2.60;1.23;;;13.00;92.20;;;13.39;45.38;101191.00;4848924;28;98096;-49
2022/12/04 06:19:23;;;;;;;2.03;1.10;;;12.40;94.50;;;13.47;47.86;101188.94;4840038;28;122033;-51
2022/12/04 06:21:51;;;;;;;2.80;1.37;;;12.40;99.40;;;13.17;48.06;101188.28;4845083;28;96920;-57
2022/12/04 06:24:22;;;;;;;2.77;1.50;;;12.10;96.90;;;13.10;47.63;101182.34;4843463;28;97232;-56
2022/12/04 06:26:49;;;;;;;3.03;1.80;;;12.10;98.10;;;13.10;48.23;101197.38;4831072;28;102044;-55
2022/12/04 06:29:16;;;;;;;1.30;0.60;;;12.10;97.60;;;13.65;47.92;101200.59;4828454;28;97040;-51
2022/12/04 06:31:42;;;;;;;2.63;1.57;;;12.90;99.90;;;14.12;47.59;101195.13;4837223;28;96900;-50
2022/12/04 06:34:09;;;;;;;2.90;0.73;;;13.70;99.90;;;14.51;46.13;101196.13;4839258;28;98937;-50
2022/12/04 06:36:35;;;;;;;3.53;1.17;;;14.40;99.90;;;14.82;45.49;101192.97;4840877;28;126313;-53
2022/12/04 06:39:02;;;;;;;2.40;0.67;;;14.90;99.70;;;15.08;44.50;101204.22;4843167;28;97353;-51
2022/12/04 06:41:28;;;;;;;1.63;0.97;;;15.20;98.50;;;15.27;44.31;101198.91;4830991;28;97007;-52
2022/12/04 06:43:55;;;;;;;1.90;0.73;;;15.40;98.70;;;15.44;43.51;101198.97;4838777;28;97416;-55
2022/12/04 06:46:30;;;;;;;2.17;0.97;;;15.60;97.90;;;15.45;43.59;101211.34;4830209;28;98686;-58
2022/12/04 06:48:58;;;;;;;1.20;0.70;;;15.50;96.60;;;15.62;43.13;101216.78;4830280;28;99953;-53
2022/12/04 06:51:31;;;;;;;1.53;0.70;;;15.70;97.60;;;15.62;42.80;101208.81;4840098;28;97412;-51
2022/12/04 06:53:57;;;;;;;2.03;1.20;;;15.70;96.90;;;15.71;43.00;101213.66;4838549;28;98316;-56
2022/12/04 06:56:27;;;;;;;1.70;0.80;;;15.80;97.10;;;15.85;42.25;101212.13;4834602;28;97505;-53
2022/12/04 06:58:56;;;;;;;1.73;0.90;;;16.00;96.80;;;15.98;41.80;101213.25;4838904;28;97333;-54
2022/12/04 07:01:26;;;;;;;1.13;0.60;;;16.10;96.30;;;15.98;41.92;101221.25;4825956;29;96958;-59
2022/12/04 07:03:53;;;;;;;2.03;1.10;;;16.10;95.10;;;15.91;41.82;101218.03;4843937;28;96802;-54
2022/12/04 07:06:23;;;;;;;1.53;0.80;;;16.00;95.10;;;15.93;41.74;101215.28;4824715;29;96706;-56
2022/12/04 07:08:53;;;;;;;1.70;0.73;;;15.90;95.90;;;15.95;41.84;101218.72;4839006;28;101225;-54
2022/12/04 07:11:20;;;;;;;2.07;0.70;;;15.90;96.20;;;15.84;41.90;101216.59;4840345;28;97317;-56
2022/12/04 07:13:46;;;;;;;2.43;1.00;;;15.80;95.10;;;15.75;42.14;101207.25;4834957;28;96939;-54
2022/12/04 07:16:15;;;;;;;3.40;1.50;;;15.60;94.50;;;15.61;42.40;101212.38;4840303;28;97403;-51
2022/12/04 07:18:42;;;;;;;2.37;0.63;;;15.30;96.80;;;15.68;42.40;101216.47;4837485;28;97214;-52
2022/12/04 07:21:13;;;;;;;2.90;1.30;;;15.50;96.70;;;15.66;42.07;101218.34;4841756;28;97300;-54
2022/12/04 07:23:39;;;;;;;1.33;1.03;;;15.50;94.40;;;15.47;42.38;101222.75;4819953;28;102480;-52
2022/12/04 07:26:08;;;;;;;2.63;0.93;;;15.10;91.00;;;15.11;43.08;101220.88;4841156;28;123350;-54
2022/12/04 07:28:35;;;;;;;1.90;1.07;;;14.40;94.00;;;15.04;43.63;101219.41;4836464;28;99043;-56
2022/12/04 07:31:07;;;;;;;3.60;1.33;;;14.40;93.20;;;14.47;44.22;101223.75;4841585;28;97058;-56
2022/12/04 07:33:33;;;;;;;1.53;0.87;;;13.60;93.20;;;14.43;45.27;101230.06;4837112;28;96907;-55
2022/12/04 07:36:02;;;;;;;2.47;0.90;;;13.50;97.70;;;14.31;45.25;101222.59;4841907;28;98945;-52
2022/12/04 07:38:29;;;;;;;2.10;1.50;;;13.50;98.40;;;14.09;45.30;101227.09;4835077;28;99137;-50
2022/12/04 07:40:59;;;;;;;3.33;1.43;;;13.20;97.40;;;14.02;45.79;101230.91;4842329;28;96946;-54
2022/12/04 07:43:26;;;;;;;2.30;1.60;;;13.20;95.90;;;13.86;44.46;101234.19;4838211;28;103470;-61
2022/12/04 07:45:52;;;;;;;3.63;1.83;;;12.90;94.70;;;13.81;46.44;101233.50;4837844;28;101491;-56
2022/12/04 07:48:17;;;;;;;2.30;1.40;;;12.80;96.80;;;13.55;45.88;101236.31;4824762;28;97670;-54
2022/12/04 07:50:43;;;;;;;3.27;1.67;;;12.40;95.70;;;13.40;42.86;101241.28;4837155;28;118674;-51
2022/12/04 07:53:09;;;;;;;3.27;1.50;;;12.30;95.70;;;13.47;47.82;101238.41;4836397;28;117336;-53
2022/12/04 07:55:35;;;;;;;0.67;0.57;;;12.40;98.40;;;13.35;47.91;101232.66;4839463;28;97650;-53
2022/12/04 07:58:01;;;;;;;3.10;1.67;;;12.30;99.90;;;13.32;45.89;101240.72;4835875;28;111858;-54
2022/12/04 08:00:27;;;;;;;1.57;0.93;;;12.30;95.00;;;13.35;48.44;101237.97;4839508;28;96875;-52
2022/12/04 08:02:52;;;;;;;2.53;1.03;;;12.30;99.90;;;13.39;48.35;101231.59;4833969;28;97471;-52
2022/12/04 08:05:18;;;;;;;2.27;1.07;;;12.40;98.70;;;13.74;47.79;101247.06;4838506;28;97269;-54
2022/12/04 08:07:44;;;;;;;2.10;0.93;;;13.00;99.90;;;13.93;47.53;101238.34;4836899;28;105185;-54
2022/12/04 08:10:10;;;;;;;2.53;1.27;;;13.40;99.90;;;14.36;46.52;101247.19;4837021;28;99943;-54
2022/12/04 08:12:36;;;;;;;1.97;1.10;;;14.00;99.90;;;14.69;45.71;101249.34;4839287;28;97812;-52
2022/12/04 08:15:02;;;;;;;2.07;1.37;;;14.60;98.70;;;14.82;45.26;101250.53;4821736;28;97400;-52
2022/12/04 08:17:27;;;;;;;2.60;0.90;;;14.70;98.30;;;15.01;44.55;101245.28;4841288;28;98181;-53
2022/12/04 08:19:53;;;;;;;2.00;1.33;;;15.00;98.80;;;14.93;40.98;101250.94;4832904;28;97965;-54
2022/12/04 08:22:19;;;;;;;1.47;0.93;;;14.80;90.30;;;14.87;44.85;101249.41;4836892;28;97313;-54
2022/12/04 08:24:45;;;;;;;2.57;0.90;;;14.50;95.60;;;14.97;44.70;101249.88;4837937;28;97031;-53
2022/12/04 08:27:11;;;;;;;0.80;0.60;;;14.50;99.40;;;15.07;44.65;101256.50;4846113;28;97471;-52
2022/12/04 08:29:36;;;;;;;2.67;0.80;;;14.80;98.70;;;15.04;44.70;101259.28;4835689;28;97068;-51
2022/12/04 08:32:03;;;;;;;3.03;1.77;;;14.60;97.90;;;15.11;44.39;101252.78;4841542;28;109458;-56
2022/12/04 08:34:29;;;;;;;2.23;0.83;;;14.80;96.00;;;15.17;44.49;101247.16;4838924;28;99262;-59
2022/12/04 08:36:55;;;;;;;2.77;1.20;;;14.80;98.30;;;15.03;44.32;101254.91;4841580;28;101379;-52
2022/12/04 08:39:20;;;;;;;3.00;1.50;;;14.60;93.00;;;14.77;40.05;101258.72;4846703;28;97204;-52
2022/12/04 08:41:46;;;;;;;1.23;0.70;;;14.10;91.00;;;14.37;45.47;101251.56;4820847;28;96725;-56
2022/12/04 08:44:12;;;;;;;2.80;0.93;;;13.30;96.20;;;14.40;46.17;101254.06;4844583;28;97016;-56
2022/12/04 08:46:38;;;;;;;0.57;0.53;;;13.40;98.70;;;14.26;46.24;101256.44;4838348;28;97324;-56
2022/12/04 08:49:04;;;;;;;2.17;1.33;;;13.30;96.10;;;14.29;43.89;101261.63;4832281;28;96694;-54
2022/12/04 08:51:35;;;;;;;2.93;1.90;;;13.40;94.30;;;14.31;44.83;101257.09;4832839;28;98123;-61
2022/12/04 08:54:07;;;;;;;2.07;1.03;;;13.50;94.10;;;14.23;45.17;101248.63;4834762;28;103105;-56
2022/12/04 08:56:34;;;;;;;3.90;1.67;;;13.30;98.80;;;14.04;39.19;101250.31;4854070;28;97203;-56
2022/12/04 08:59:00;;;;;;;2.00;1.00;;;13.20;93.30;;;14.12;46.59;101249.03;4844360;28;97322;-56
2022/12/04 09:01:28;;;;;;;1.83;0.90;;;13.30;97.50;;;14.18;46.84;101247.94;4853304;28;107162;-56
2022/12/04 09:03:54;;;;;;;1.37;0.73;;;13.40;99.90;;;14.30;46.74;101252.72;4846783;28;97818;-56
2022/12/04 09:06:21;;;;;;;2.40;1.30;;;13.60;99.90;;;14.65;45.78;101242.47;4831831;28;114673;-56
2022/12/04 09:08:46;;;;;;;1.67;1.10;;;14.20;99.90;;;14.81;45.69;101240.84;4851726;28;96959;-56
2022/12/04 09:11:19;;;;;;;1.47;1.00;;;14.60;99.90;;;14.96;44.77;101234.84;4846213;28;97255;-56
2022/12/04 09:13:46;;;;;;;2.93;1.03;;;14.80;98.60;;;15.12;44.57;101230.56;4832324;28;96853;-56
2022/12/04 09:16:17;;;;;;;6.97;2.67;;;15.00;98.80;;;15.11;42.21;101231.50;4850060;28;97041;-56
2022/12/04 09:18:43;;;;;;;2.60;1.40;;;15.00;90.90;;;14.83;43.35;101236.34;4837526;28;97348;-56
2022/12/04 09:21:13;;;;;;;2.43;1.37;;;14.30;91.20;;;14.41;41.13;101239.00;4847708;28;97113;-56
2022/12/04 09:23:40;;;;;;;2.50;1.30;;;13.60;92.00;;;14.36;45.19;101247.19;4833085;28;98616;-55
2022/12/04 09:26:21;;;;;;;2.73;1.70;;;13.50;95.30;;;13.99;45.04;101251.31;4822151;28;98113;-56
2022/12/04 09:28:49;;;;;;;2.10;1.27;;;13.00;93.20;;;13.93;46.33;101256.91;4818889;28;99190;-56
2022/12/04 09:31:16;;;;;;;1.63;0.80;;;12.80;96.40;;;13.86;46.98;101258.03;4804691;28;96802;-56
2022/12/04 09:33:43;;;;;;;1.30;0.80;;;12.80;99.90;;;13.67;46.02;101257.06;4819085;28;97800;-56
2022/12/04 09:36:14;;;;;;;3.10;1.50;;;12.70;95.60;;;13.54;45.78;101269.06;4821761;28;97262;-56
2022/12/04 09:38:45;;;;;;;3.73;1.47;;;12.50;94.90;;;13.62;46.82;101272.28;4817964;28;99046;-56
2022/12/04 09:41:50;;;;;;;2.00;1.13;;;12.60;98.90;;;13.93;47.41;101272.81;4820772;28;102014;-56
2022/12/04 09:44:31;;;;;;;4.23;1.93;;;13.00;99.90;;;13.81;44.45;101265.34;4817367;28;100535;-56
2022/12/04 09:47:18;;;;;;;2.30;1.37;;;13.20;93.30;;;13.65;46.07;101270.38;4806050;28;98426;-56
2022/12/04 09:49:53;;;;;;;3.53;2.13;;;12.90;94.10;;;13.35;38.65;101267.09;4817199;28;103391;-56
2022/12/04 09:52:21;;;;;;;3.30;2.30;;;12.50;93.90;;;13.12;44.03;101264.41;4823125;28;98270;-55
2022/12/04 09:54:49;;;;;;;3.40;1.70;;;12.00;94.10;;;13.23;48.32;101259.59;4816687;28;97351;-55
2022/12/04 09:57:39;;;;;;;1.87;1.23;;;12.10;99.90;;;13.46;47.55;101252.59;4807212;28;103198;-55
2022/12/04 10:00:11;;;;;;;5.60;2.40;;;12.60;99.90;;;13.27;41.63;101261.22;4804999;28;99876;-56
2022/12/04 10:02:44;;;;;;;3.17;1.67;;;12.40;95.60;;;13.01;47.81;101261.25;4803114;29;97723;-56
2022/12/04 10:05:31;;;;;;;4.03;1.83;;;12.00;96.10;;;13.24;47.23;101260.47;4801345;29;98140;-56
2022/12/04 10:08:22;;;;;;;4.17;2.40;;;12.30;95.80;;;13.20;45.92;101267.69;4816871;28;97504;-56
2022/12/04 10:11:03;;;;;;;4.77;2.70;;;12.20;95.90;;;12.89;46.87;101261.72;4818292;28;99104;-54
2022/12/04 10:14:06;;;;;;;4.97;2.13;;;11.70;94.50;;;12.52;45.59;101263.00;4819649;28;97647;-56
2022/12/04 10:16:51;;;;;;;4.00;2.10;;;11.30;95.00;;;12.31;39.83;101250.50;4819984;28;101657;-56
2022/12/04 10:19:48;;;;;;;2.37;1.27;;;11.20;95.40;;;12.23;45.79;101244.59;4819536;28;102457;-55
2022/12/04 10:22:36;;;;;;;1.80;0.90;;;11.10;98.00;;;12.15;50.92;101242.19;4803391;28;97750;-54
2022/12/04 10:25:19;;;;;;;2.00;1.17;;;11.00;99.90;;;12.34;50.84;101245.09;4818211;28;97757;-56
2022/12/04 10:28:09;;;;;;;1.33;0.83;;;11.20;99.90;;;12.60;50.60;101245.09;4802151;28;99333;-56
2022/12/04 10:30:36;;;;;;;4.63;1.67;;;11.70;99.90;;;12.73;48.50;101240.19;4823709;28;97906;-53
2022/12/04 10:33:19;;;;;;;1.40;0.87;;;11.90;98.20;;;12.57;44.26;101234.59;4801536;28;100300;-56
2022/12/04 10:35:51;;;;;;;4.43;2.10;;;11.70;96.60;;;12.64;47.17;101228.16;4803314;28;99067;-53
2022/12/04 10:38:38;;;;;;;1.23;0.90;;;11.60;97.10;;;12.90;49.79;101226.38;4801859;28;100531;-53
2022/12/04 10:41:45;;;;;;;3.10;2.07;;;11.90;99.90;;;12.78;45.51;101217.97;4817904;28;101306;-54
2022/12/04 10:44:16;;;;;;;3.60;1.40;;;11.80;96.20;;;12.93;49.53;101215.69;4801167;28;97515;-55
2022/12/04 10:46:42;;;;;;;3.43;1.10;;;11.80;99.90;;;13.12;49.23;101211.41;4817219;28;97892;-53